createdAt,value
2023-03-23T15:57:54.173Z,57.66
2023-03-23T16:00:23.482Z,58.03
2023-03-23T16:02:55.012Z,58.52
2023-03-23T16:05:21.651Z,58.64
2023-03-23T16:07:48.206Z,58.69
2023-03-23T16:10:17.465Z,59.11
2023-03-23T16:12:44.355Z,58.25
2023-03-23T16:15:11.194Z,57.91
2023-03-23T16:17:37.821Z,58.15
2023-03-23T16:20:12.224Z,58.47
2023-03-23T16:22:38.847Z,59.14
2023-03-23T16:25:05.748Z,59.35
2023-03-23T16:27:32.233Z,60.30
2023-03-23T16:30:03.901Z,60.88
2023-03-23T16:32:31.140Z,61.76
2023-03-23T16:34:57.643Z,62.47
2023-03-23T16:37:24.225Z,63.31
2023-03-23T16:39:50.660Z,64.80
2023-03-23T16:42:17.204Z,65.96
2023-03-23T16:44:43.649Z,67.10
2023-03-23T16:47:10.213Z,68.98
2023-03-23T16:49:36.805Z,70.24
2023-03-23T16:52:03.310Z,71.70
2023-03-23T16:54:29.766Z,72.93
2023-03-23T16:56:56.374Z,73.88
2023-03-23T16:59:22.856Z,75.37
2023-03-23T17:01:49.522Z,76.42
2023-03-23T17:04:16.074Z,76.61
2023-03-23T17:06:42.596Z,77.54
2023-03-23T17:09:09.178Z,77.98
2023-03-23T17:11:35.936Z,79.97
2023-03-23T17:14:02.449Z,79.75
2023-03-23T17:16:28.958Z,80.46
2023-03-23T17:18:55.437Z,81.13
2023-03-23T17:21:21.973Z,81.85
2023-03-23T17:23:48.503Z,81.90
2023-03-23T17:26:15.044Z,82.83
2023-03-23T17:28:41.529Z,82.60
2023-03-23T17:31:08.116Z,84.34
2023-03-23T17:33:34.593Z,84.37
2023-03-23T17:36:01.101Z,84.67
2023-03-23T17:38:27.606Z,84.60
2023-03-23T17:41:02.089Z,87.38
2023-03-23T17:43:28.630Z,85.49
2023-03-23T17:45:55.279Z,86.62
2023-03-23T17:48:21.803Z,86.64
2023-03-23T17:50:49.342Z,87.23
2023-03-23T17:53:16.171Z,87.31
2023-03-23T17:55:42.900Z,87.33
2023-03-23T17:58:09.845Z,87.41
2023-03-23T18:00:36.802Z,86.97
2023-03-23T18:03:03.418Z,87.81
2023-03-23T18:05:30.065Z,88.47
2023-03-23T18:07:56.645Z,88.17
2023-03-23T18:10:23.490Z,87.66
2023-03-23T18:12:49.984Z,88.13
2023-03-23T18:15:17.770Z,88.42
2023-03-23T18:17:44.292Z,88.36
2023-03-23T18:20:10.991Z,88.11
2023-03-23T18:22:37.517Z,87.86
2023-03-23T18:25:04.263Z,88.00
2023-03-23T18:27:30.926Z,87.97
2023-03-23T18:29:58.362Z,88.63
2023-03-23T18:32:24.885Z,88.56
2023-03-23T18:34:51.404Z,88.30
2023-03-23T18:37:17.823Z,88.77
2023-03-23T18:39:44.313Z,88.44
2023-03-23T18:42:10.784Z,88.92
2023-03-23T18:44:37.432Z,88.80
2023-03-23T18:47:04.482Z,89.92
2023-03-23T18:49:30.980Z,90.23
2023-03-23T18:51:57.443Z,89.82
2023-03-23T18:54:24.130Z,89.70
2023-03-23T18:56:50.633Z,89.56
2023-03-23T18:59:17.303Z,90.64
2023-03-23T19:01:44.095Z,90.78
2023-03-23T19:04:10.631Z,90.47
2023-03-23T19:06:37.167Z,90.59
2023-03-23T19:09:03.679Z,90.61
2023-03-23T19:11:30.566Z,90.75
2023-03-23T19:16:26.645Z,90.89
2023-03-23T19:18:53.213Z,91.27
2023-03-23T19:21:22.232Z,91.57
2023-03-23T19:23:51.891Z,91.69
2023-03-23T19:26:23.418Z,91.82
2023-03-23T19:31:19.443Z,91.98
2023-03-23T19:33:45.945Z,92.22
2023-03-23T19:36:14.009Z,92.33
2023-03-23T19:38:40.557Z,94.04
2023-03-23T19:41:07.284Z,94.04
2023-03-23T19:43:34.111Z,94.24
2023-03-23T19:46:00.870Z,94.63
2023-03-23T19:48:27.409Z,94.32
2023-03-23T19:50:54.028Z,95.51
2023-03-23T19:53:20.614Z,94.75
2023-03-23T19:55:47.671Z,95.02
2023-03-23T19:58:14.378Z,95.43
2023-03-23T20:00:41.183Z,95.87
2023-03-23T20:03:08.769Z,96.09
2023-03-23T20:05:35.575Z,96.05
2023-03-23T20:08:04.653Z,96.94
2023-03-23T20:10:31.546Z,97.05
2023-03-23T20:12:58.108Z,96.68
2023-03-23T20:15:24.587Z,96.38
2023-03-23T20:17:51.289Z,97.15
2023-03-23T20:20:18.130Z,97.29
2023-03-23T20:22:44.680Z,97.66
2023-03-23T20:25:12.173Z,97.72
2023-03-23T20:27:39.447Z,97.53
2023-03-23T20:30:07.151Z,96.95
2023-03-23T20:32:34.598Z,97.69
2023-03-23T20:35:02.042Z,97.33
2023-03-23T20:37:30.526Z,97.60
2023-03-23T20:39:57.775Z,97.10
2023-03-23T20:42:24.287Z,96.31
2023-03-23T20:44:50.752Z,96.96
2023-03-23T20:47:17.219Z,97.05
2023-03-23T20:49:43.675Z,96.64
2023-03-23T20:52:19.920Z,96.23
2023-03-23T20:54:46.350Z,96.33
2023-03-23T20:57:13.044Z,96.26
2023-03-23T20:59:39.506Z,96.15
2023-03-23T21:02:06.000Z,95.60
2023-03-23T21:04:32.604Z,95.92
2023-03-23T21:06:59.086Z,95.81
2023-03-23T21:09:25.658Z,95.47
2023-03-23T21:11:52.258Z,96.12
2023-03-23T21:14:19.074Z,95.09
2023-03-23T21:16:45.690Z,92.88
2023-03-23T21:19:12.587Z,92.37
2023-03-23T21:21:39.856Z,91.24
2023-03-23T21:24:23.818Z,91.24
2023-03-23T21:26:50.275Z,90.77
2023-03-23T21:29:16.803Z,90.04
2023-03-23T21:31:43.228Z,90.32
2023-03-23T21:34:09.737Z,90.32
2023-03-23T21:36:36.254Z,91.32
2023-03-23T21:39:04.037Z,90.67
2023-03-23T21:41:30.570Z,90.96
2023-03-23T21:44:08.850Z,91.04
2023-03-23T21:46:35.334Z,91.56
2023-03-23T21:49:01.810Z,91.44
2023-03-23T21:51:29.225Z,91.66
2023-03-23T21:53:56.436Z,91.92
2023-03-23T21:56:25.537Z,91.79
2023-03-23T21:58:52.252Z,92.34
2023-03-23T22:01:20.502Z,91.96
2023-03-23T22:03:47.395Z,92.80
2023-03-23T22:06:17.049Z,92.89
2023-03-23T22:08:45.629Z,92.78
2023-03-23T22:11:17.399Z,93.25
2023-03-23T22:13:44.346Z,93.41
2023-03-23T22:16:12.627Z,93.72
2023-03-23T22:18:40.606Z,93.60
2023-03-23T22:21:07.877Z,93.89
2023-03-23T22:23:35.414Z,93.87
2023-03-23T22:26:01.876Z,94.14
2023-03-23T22:28:28.777Z,93.63
2023-03-23T22:31:01.193Z,93.73
2023-03-23T22:33:27.684Z,93.65
2023-03-23T22:35:54.173Z,94.18
2023-03-23T22:38:20.696Z,94.26
2023-03-23T22:40:57.884Z,94.13
2023-03-23T22:43:24.893Z,93.94
2023-03-23T22:45:52.045Z,93.94
2023-03-23T22:48:20.527Z,94.32
2023-03-23T22:50:48.298Z,94.14
2023-03-23T22:53:16.307Z,93.96
2023-03-23T22:55:44.456Z,94.22
2023-03-23T22:58:11.667Z,94.34
2023-03-23T23:00:39.761Z,94.51
2023-03-23T23:03:07.208Z,94.70
2023-03-23T23:05:35.530Z,94.84
2023-03-23T23:08:02.044Z,95.25
2023-03-23T23:10:28.567Z,94.77
2023-03-23T23:12:55.081Z,95.58
2023-03-23T23:15:21.596Z,95.81
2023-03-23T23:17:49.248Z,95.75
2023-03-23T23:20:15.746Z,96.05
2023-03-23T23:22:43.751Z,96.00
2023-03-23T23:25:11.495Z,95.87
2023-03-23T23:27:38.481Z,96.84
2023-03-23T23:30:05.563Z,96.37
2023-03-23T23:32:32.775Z,96.64
2023-03-23T23:34:59.377Z,96.71
2023-03-23T23:37:25.873Z,97.05
2023-03-23T23:39:52.403Z,96.63
2023-03-23T23:42:18.858Z,97.08
2023-03-23T23:44:45.325Z,97.20
2023-03-23T23:47:11.817Z,97.42
2023-03-23T23:49:38.534Z,97.03
2023-03-23T23:52:05.117Z,97.10
2023-03-23T23:54:31.608Z,97.08
2023-03-23T23:56:59.683Z,97.57
2023-03-23T23:59:26.884Z,97.29
